createdAt,value
2022-10-18T00:00:01.960Z,22.15
2022-10-18T00:01:06.080Z,22.18
2022-10-18T00:02:10.284Z,22.14
2022-10-18T00:03:14.699Z,22.16
2022-10-18T00:04:18.784Z,22.17
2022-10-18T00:05:22.969Z,22.14
2022-10-18T00:06:27.219Z,22.14
2022-10-18T00:07:31.661Z,22.17
2022-10-18T00:08:36.506Z,22.15
2022-10-18T00:09:40.616Z,22.15
2022-10-18T00:10:44.741Z,22.17
2022-10-18T00:11:48.873Z,22.17
2022-10-18T00:12:53.209Z,22.15
2022-10-18T00:13:57.367Z,22.17
2022-10-18T00:15:01.468Z,22.17
2022-10-18T00:16:05.540Z,22.17
2022-10-18T00:17:09.621Z,22.16
2022-10-18T00:18:13.768Z,22.16
2022-10-18T00:19:17.894Z,22.13
2022-10-18T00:20:21.999Z,22.12
2022-10-18T00:21:26.083Z,22.14
2022-10-18T00:22:30.399Z,22.15
2022-10-18T00:23:35.840Z,22.17
2022-10-18T00:24:39.968Z,22.14
2022-10-18T00:25:44.094Z,22.15
2022-10-18T00:26:48.205Z,22.14
2022-10-18T00:27:52.326Z,22.13
2022-10-18T00:28:56.471Z,22.15
2022-10-18T00:30:00.730Z,22.14
2022-10-18T00:31:04.869Z,22.14
2022-10-18T00:32:08.951Z,22.13
2022-10-18T00:33:13.039Z,22.13
2022-10-18T00:34:17.160Z,22.12
2022-10-18T00:35:21.274Z,22.13
2022-10-18T00:36:25.360Z,22.13
2022-10-18T00:37:29.455Z,22.13
2022-10-18T00:38:33.560Z,22.1
2022-10-18T00:39:37.774Z,22.11
2022-10-18T00:40:42.089Z,22.11
2022-10-18T00:41:46.174Z,22.08
2022-10-18T00:42:50.312Z,22.08
2022-10-18T00:43:54.414Z,22.11
2022-10-18T00:44:58.528Z,22.1
2022-10-18T00:46:02.636Z,22.07
2022-10-18T00:47:06.754Z,22.08
2022-10-18T00:48:10.888Z,22.1
2022-10-18T00:49:14.998Z,22.1
2022-10-18T00:50:19.325Z,22.1
2022-10-18T00:51:23.424Z,22.06
2022-10-18T00:52:27.610Z,22.09
2022-10-18T00:53:32.972Z,22.06
2022-10-18T00:54:37.059Z,22.08
2022-10-18T00:55:41.178Z,22.07
2022-10-18T00:56:45.311Z,22.07
2022-10-18T00:57:49.499Z,22.06
2022-10-18T00:58:53.864Z,22.06
2022-10-18T00:59:58.008Z,22.03
2022-10-18T01:01:02.116Z,22.03
2022-10-18T01:02:06.305Z,22.03
2022-10-18T01:03:10.581Z,22.05
2022-10-18T01:04:14.675Z,22.05
2022-10-18T01:05:18.804Z,22.06
2022-10-18T01:06:22.904Z,22.06
2022-10-18T01:07:26.999Z,22.05
2022-10-18T01:08:31.798Z,22.05
2022-10-18T01:09:35.905Z,22.05
2022-10-18T01:10:39.999Z,22.04
2022-10-18T01:11:44.130Z,22.04
2022-10-18T01:12:48.236Z,22.04
2022-10-18T01:13:52.343Z,22.04
2022-10-18T01:14:56.479Z,22.04
2022-10-18T01:16:00.584Z,22.01
2022-10-18T01:17:04.740Z,22.03
2022-10-18T01:18:08.868Z,22.02
2022-10-18T01:19:12.988Z,22.03
2022-10-18T01:20:17.115Z,22.03
2022-10-18T01:21:21.217Z,22.03
2022-10-18T01:22:25.369Z,22.02
2022-10-18T01:23:29.457Z,22.02
2022-10-18T01:24:33.553Z,22.01
2022-10-18T01:25:37.670Z,22.01
2022-10-18T01:26:41.772Z,22.01
2022-10-18T01:27:45.896Z,22.01
2022-10-18T01:28:50.030Z,22.01
2022-10-18T01:29:54.377Z,22.01
2022-10-18T01:30:58.493Z,22
2022-10-18T01:32:02.621Z,21.97
2022-10-18T01:33:06.739Z,21.96
2022-10-18T01:34:10.852Z,21.99
2022-10-18T01:35:14.995Z,21.99
2022-10-18T01:36:19.110Z,21.99
2022-10-18T01:37:23.235Z,21.98
2022-10-18T01:38:27.408Z,21.98
2022-10-18T01:39:31.504Z,21.98
2022-10-18T01:40:35.614Z,21.94
2022-10-18T01:41:39.720Z,21.98
2022-10-18T01:42:43.824Z,21.97
2022-10-18T01:43:47.924Z,21.95
2022-10-18T01:44:52.031Z,21.93
2022-10-18T01:45:56.144Z,21.93
2022-10-18T01:47:00.275Z,21.92
2022-10-18T01:48:04.478Z,21.96
2022-10-18T01:49:08.634Z,21.96
2022-10-18T01:50:12.732Z,21.96
2022-10-18T01:51:16.852Z,21.96
2022-10-18T01:52:20.944Z,21.95
2022-10-18T01:53:25.058Z,21.95
2022-10-18T01:54:29.222Z,21.92
2022-10-18T01:55:33.318Z,21.92
2022-10-18T01:56:37.433Z,21.92
2022-10-18T01:57:41.912Z,21.96
2022-10-18T01:58:46.043Z,21.92
2022-10-18T01:59:50.141Z,21.92
2022-10-18T02:00:54.279Z,21.92
2022-10-18T02:01:58.433Z,21.95
2022-10-18T02:03:02.537Z,21.92
2022-10-18T02:04:06.651Z,21.93
2022-10-18T02:05:10.769Z,21.91
2022-10-18T02:06:14.859Z,21.92
2022-10-18T02:07:18.960Z,21.92
2022-10-18T02:08:23.831Z,21.91
2022-10-18T02:09:28.087Z,21.94
2022-10-18T02:10:32.235Z,21.94
2022-10-18T02:11:36.332Z,21.94
2022-10-18T02:12:40.519Z,21.94
2022-10-18T02:13:44.663Z,21.93
2022-10-18T02:14:48.780Z,21.93
2022-10-18T02:15:52.895Z,21.89
2022-10-18T02:16:56.986Z,21.89
2022-10-18T02:18:01.103Z,21.92
2022-10-18T02:19:05.207Z,21.91
2022-10-18T02:20:09.321Z,21.91
2022-10-18T02:21:13.438Z,21.91
2022-10-18T02:22:17.589Z,21.9
2022-10-18T02:23:21.737Z,21.89
2022-10-18T02:24:25.855Z,21.9
2022-10-18T02:25:29.979Z,21.89
2022-10-18T02:26:34.082Z,21.89
2022-10-18T02:27:38.197Z,21.9
2022-10-18T02:28:42.299Z,21.9
2022-10-18T02:29:46.455Z,21.89
2022-10-18T02:30:50.689Z,21.86
2022-10-18T02:31:54.801Z,21.86
2022-10-18T02:32:58.903Z,21.85
2022-10-18T02:34:03.014Z,21.88
2022-10-18T02:35:07.121Z,21.89
2022-10-18T02:36:11.216Z,21.9
2022-10-18T02:37:15.337Z,21.9
2022-10-18T02:38:19.790Z,21.95
2022-10-18T02:39:23.900Z,21.99
2022-10-18T02:40:28.022Z,22.09
2022-10-18T02:41:32.135Z,22.15
2022-10-18T02:42:36.280Z,21.63
2022-10-18T02:43:40.372Z,22.27
2022-10-18T02:44:44.485Z,22.37
2022-10-18T02:45:48.633Z,22.42
2022-10-18T02:46:52.760Z,22.47
2022-10-18T02:47:56.928Z,22.53
2022-10-18T02:49:01.062Z,22.59
2022-10-18T02:50:05.158Z,22.66
2022-10-18T02:51:09.279Z,22.66
2022-10-18T02:52:13.381Z,22.67
2022-10-18T02:53:17.500Z,22.69
2022-10-18T02:54:21.620Z,22.72
2022-10-18T02:55:25.754Z,22.71
2022-10-18T02:56:30.919Z,22.68
2022-10-18T02:57:35.172Z,22.72
2022-10-18T02:58:39.316Z,22.67
2022-10-18T02:59:43.436Z,22.65
2022-10-18T03:00:47.554Z,22.65
2022-10-18T03:01:51.736Z,22.64
2022-10-18T03:02:55.997Z,22.62
2022-10-18T03:04:00.111Z,22.65
2022-10-18T03:05:04.205Z,22.61
2022-10-18T03:06:08.320Z,22.61
2022-10-18T03:07:12.447Z,22.67
2022-10-18T03:08:16.569Z,22.68
2022-10-18T03:09:20.690Z,22.72
2022-10-18T03:10:24.815Z,22.76
2022-10-18T03:11:28.920Z,22.77
2022-10-18T03:12:33.041Z,22.8
2022-10-18T03:13:37.180Z,22.87
2022-10-18T03:14:41.277Z,22.88
2022-10-18T03:15:45.412Z,22.88
2022-10-18T03:16:49.513Z,22.89
2022-10-18T03:17:53.631Z,22.88
2022-10-18T03:18:57.718Z,22.88
2022-10-18T03:20:01.833Z,22.9
2022-10-18T03:21:05.950Z,22.84
2022-10-18T03:22:10.086Z,22.83
2022-10-18T03:23:14.236Z,22.8
2022-10-18T03:24:18.365Z,22.76
2022-10-18T03:25:22.468Z,22.79
2022-10-18T03:26:26.565Z,22.77
2022-10-18T03:27:30.947Z,22.75
2022-10-18T03:28:36.183Z,22.76
2022-10-18T03:29:40.428Z,22.78
2022-10-18T03:30:44.548Z,22.8
2022-10-18T03:31:48.666Z,22.85
2022-10-18T03:32:52.786Z,22.87
2022-10-18T03:33:56.926Z,22.86
2022-10-18T03:35:01.068Z,22.89
2022-10-18T03:36:05.229Z,22.91
2022-10-18T03:37:09.386Z,22.94
2022-10-18T03:38:13.494Z,22.92
2022-10-18T03:39:17.610Z,22.88
2022-10-18T03:40:21.851Z,22.83
2022-10-18T03:41:26.072Z,22.84
2022-10-18T03:42:30.339Z,22.81
2022-10-18T03:43:35.704Z,22.8
2022-10-18T03:44:39.813Z,22.77
2022-10-18T03:45:43.954Z,22.78
2022-10-18T03:46:48.055Z,22.77
2022-10-18T03:47:52.164Z,22.75
2022-10-18T03:48:56.261Z,22.73
2022-10-18T03:50:00.393Z,22.7
2022-10-18T03:51:04.523Z,22.71
2022-10-18T03:52:08.683Z,22.69
2022-10-18T03:53:12.847Z,22.66
2022-10-18T03:54:16.975Z,22.67
2022-10-18T03:55:21.081Z,22.67
2022-10-18T03:56:25.215Z,22.67
2022-10-18T03:57:29.324Z,22.64
2022-10-18T03:59:37.561Z,22.63
2022-10-18T04:00:41.707Z,22.67
2022-10-18T04:01:45.898Z,22.65
2022-10-18T04:02:51.879Z,22.67
2022-10-18T04:03:59.390Z,22.56
2022-10-18T04:05:03.500Z,22.55
2022-10-18T04:06:07.630Z,22.56
2022-10-18T04:07:11.740Z,22.52
2022-10-18T04:08:15.842Z,22.45
2022-10-18T04:09:19.950Z,22.44
2022-10-18T04:10:24.068Z,22.45
2022-10-18T04:11:28.195Z,22.41
2022-10-18T04:12:32.479Z,22.43
2022-10-18T04:13:37.237Z,22.41
2022-10-18T04:14:41.326Z,22.37
2022-10-18T04:15:45.614Z,22.4
2022-10-18T04:16:49.935Z,22.39
2022-10-18T04:17:54.270Z,22.48
2022-10-18T04:18:58.581Z,22.41
2022-10-18T04:20:02.961Z,22.43
2022-10-18T04:21:07.082Z,22.43
2022-10-18T04:22:11.244Z,22.41
2022-10-18T04:23:15.362Z,22.44
2022-10-18T04:24:19.494Z,22.44
2022-10-18T04:25:23.611Z,22.44
2022-10-18T04:26:27.778Z,22.43
2022-10-18T04:27:32.159Z,22.41
2022-10-18T04:28:37.506Z,22.41
2022-10-18T04:29:41.783Z,22.41
2022-10-18T04:30:45.898Z,22.45
2022-10-18T04:31:50.018Z,22.45
2022-10-18T04:32:54.173Z,22.48
2022-10-18T04:33:58.312Z,22.44
2022-10-18T04:35:02.438Z,22.42
2022-10-18T04:36:06.533Z,22.45
2022-10-18T04:37:10.655Z,22.38
2022-10-18T04:38:14.778Z,22.43
2022-10-18T04:39:18.883Z,22.41
2022-10-18T04:40:23.089Z,22.38
2022-10-18T04:41:27.186Z,22.41
2022-10-18T04:42:31.290Z,22.39
2022-10-18T04:43:35.461Z,22.44
2022-10-18T04:44:39.716Z,22.58
2022-10-18T04:45:43.836Z,22.56
2022-10-18T04:46:47.946Z,22.54
2022-10-18T04:47:52.089Z,22.54
2022-10-18T04:48:56.221Z,22.58
2022-10-18T04:50:00.342Z,22.53
2022-10-18T04:51:04.483Z,22.61
2022-10-18T04:52:08.596Z,22.73
2022-10-18T04:53:12.705Z,22.68
2022-10-18T04:54:16.827Z,22.57
2022-10-18T04:55:20.956Z,22.48
2022-10-18T04:56:25.132Z,22.46
2022-10-18T04:57:29.371Z,22.49
2022-10-18T04:58:34.517Z,22.71
2022-10-18T04:59:38.662Z,22.69
2022-10-18T05:00:42.868Z,22.58
2022-10-18T05:01:47.075Z,22.55
2022-10-18T05:02:51.596Z,22.46
2022-10-18T05:03:55.695Z,22.37
2022-10-18T05:04:59.808Z,22.34
2022-10-18T05:06:03.950Z,22.27
2022-10-18T05:07:08.056Z,22.27
2022-10-18T05:08:12.212Z,22.25
2022-10-18T05:09:16.343Z,22.18
2022-10-18T05:10:20.489Z,22.19
2022-10-18T05:11:24.599Z,22.18
2022-10-18T05:12:28.735Z,22.16
2022-10-18T05:13:33.427Z,22.15
2022-10-18T05:14:37.555Z,22.14
2022-10-18T05:15:41.718Z,22.17
2022-10-18T05:16:45.822Z,22.18
2022-10-18T05:17:49.957Z,22.19
2022-10-18T05:18:54.095Z,22.13
2022-10-18T05:19:58.228Z,22.08
2022-10-18T05:21:02.525Z,22.02
2022-10-18T05:22:06.653Z,22.04
2022-10-18T05:23:10.859Z,22.07
2022-10-18T05:24:15.005Z,22.05
2022-10-18T05:25:19.111Z,22.03
2022-10-18T05:26:23.251Z,22.06
2022-10-18T05:27:27.374Z,22.06
2022-10-18T05:28:39.500Z,22.06
2022-10-18T05:29:44.823Z,22.02
2022-10-18T05:30:48.958Z,22.01
2022-10-18T05:31:53.094Z,21.98
2022-10-18T05:32:57.207Z,21.98
2022-10-18T05:34:01.339Z,21.95
2022-10-18T05:35:05.439Z,21.93
2022-10-18T05:36:09.564Z,21.92
2022-10-18T05:37:13.660Z,21.9
2022-10-18T05:38:17.756Z,21.89
2022-10-18T05:39:21.874Z,21.88
2022-10-18T05:40:25.975Z,21.89
2022-10-18T05:41:30.112Z,21.89
2022-10-18T05:42:34.406Z,21.89
2022-10-18T05:43:38.665Z,21.87
2022-10-18T05:44:42.802Z,21.88
2022-10-18T05:45:46.900Z,21.87
2022-10-18T05:46:51.077Z,21.86
2022-10-18T05:47:55.205Z,21.82
2022-10-18T05:48:59.375Z,21.84
2022-10-18T05:50:03.489Z,21.84
2022-10-18T05:51:07.633Z,21.83
2022-10-18T05:52:11.802Z,21.83
2022-10-18T05:53:35.540Z,21.82
2022-10-18T05:54:41.276Z,21.81
2022-10-18T05:55:45.382Z,21.81
2022-10-18T05:56:49.533Z,21.78
2022-10-18T05:57:53.682Z,21.81
2022-10-18T05:58:57.813Z,21.8
2022-10-18T06:00:01.956Z,21.8
2022-10-18T06:01:06.103Z,21.8
2022-10-18T06:02:10.263Z,21.81
2022-10-18T06:03:14.623Z,21.78
2022-10-18T06:04:18.745Z,21.79
2022-10-18T06:05:22.866Z,21.79
2022-10-18T06:06:26.954Z,21.76
2022-10-18T06:07:31.387Z,21.8
2022-10-18T06:08:36.528Z,21.78
2022-10-18T06:09:40.773Z,21.76
2022-10-18T06:10:44.867Z,21.78
2022-10-18T06:11:49.077Z,21.73
2022-10-18T06:12:53.172Z,21.75
2022-10-18T06:13:57.292Z,21.75
2022-10-18T06:15:01.416Z,21.72
2022-10-18T06:16:05.528Z,21.74
2022-10-18T06:17:09.669Z,21.74
2022-10-18T06:18:13.811Z,21.75
2022-10-18T06:19:17.936Z,21.78
2022-10-18T06:20:22.100Z,21.76
2022-10-18T06:21:26.218Z,21.77
2022-10-18T06:22:30.340Z,21.75
2022-10-18T06:23:34.460Z,21.71
2022-10-18T06:24:38.592Z,21.72
2022-10-18T06:25:42.744Z,21.74
2022-10-18T06:26:46.892Z,21.7
2022-10-18T06:27:50.998Z,21.76
2022-10-18T06:28:55.203Z,21.76
2022-10-18T06:29:59.614Z,21.75
2022-10-18T06:31:03.725Z,21.73
2022-10-18T06:32:07.838Z,21.74
2022-10-18T06:33:12.385Z,21.75
2022-10-18T06:34:16.545Z,21.7
2022-10-18T06:35:20.672Z,21.72
2022-10-18T06:36:24.770Z,21.72
2022-10-18T06:37:28.994Z,21.74
2022-10-18T06:38:34.279Z,21.7
2022-10-18T06:39:38.425Z,21.72
2022-10-18T06:40:42.527Z,21.7
2022-10-18T06:41:46.666Z,21.69
2022-10-18T06:42:55.163Z,21.71
2022-10-18T06:44:23.981Z,21.67
2022-10-18T06:45:28.104Z,21.69
2022-10-18T06:46:32.237Z,21.68
2022-10-18T06:47:36.359Z,21.65
2022-10-18T06:48:40.479Z,21.64
2022-10-18T06:49:44.588Z,21.65
2022-10-18T06:50:48.745Z,21.66
2022-10-18T06:51:52.866Z,21.66
2022-10-18T06:52:56.978Z,21.66
2022-10-18T06:54:16.718Z,21.65
2022-10-18T06:55:22.383Z,21.65
2022-10-18T06:56:26.522Z,21.65
2022-10-18T06:57:30.647Z,21.64
2022-10-18T06:58:34.745Z,21.64
2022-10-18T06:59:38.866Z,21.66
2022-10-18T07:00:42.956Z,21.7
2022-10-18T07:01:47.107Z,21.71
2022-10-18T07:02:51.428Z,21.67
2022-10-18T07:03:55.551Z,21.68
2022-10-18T07:04:59.667Z,21.73
2022-10-18T07:06:03.778Z,21.76
2022-10-18T07:07:07.895Z,21.78
2022-10-18T07:08:12.046Z,21.73
2022-10-18T07:09:16.205Z,21.7
2022-10-18T07:10:20.399Z,21.72
2022-10-18T07:11:24.515Z,21.76
2022-10-18T07:12:28.620Z,21.74
2022-10-18T07:13:33.426Z,21.76
2022-10-18T07:14:37.620Z,21.81
2022-10-18T07:15:41.729Z,21.83
2022-10-18T07:16:45.841Z,21.85
2022-10-18T07:17:49.972Z,21.86
2022-10-18T07:18:54.075Z,21.82
2022-10-18T07:19:58.173Z,21.85
2022-10-18T07:21:02.263Z,21.87
2022-10-18T07:22:06.371Z,21.83
2022-10-18T07:23:10.480Z,21.85
2022-10-18T07:24:14.599Z,21.84
2022-10-18T07:25:18.712Z,21.84
2022-10-18T07:26:22.846Z,21.87
2022-10-18T07:27:26.970Z,21.87
2022-10-18T07:28:31.308Z,21.87
2022-10-18T07:29:35.596Z,21.87
2022-10-18T07:30:39.745Z,21.87
2022-10-18T07:31:43.882Z,21.72
2022-10-18T07:32:48.004Z,21.89
2022-10-18T07:33:52.122Z,21.95
2022-10-18T07:34:56.226Z,21.96
2022-10-18T07:36:00.516Z,21.98
2022-10-18T07:37:04.613Z,21.97
2022-10-18T07:38:08.727Z,21.98
2022-10-18T07:39:12.890Z,21.93
2022-10-18T07:40:16.969Z,21.92
2022-10-18T07:41:21.138Z,21.92
2022-10-18T07:42:25.237Z,21.91
2022-10-18T07:43:29.348Z,21.91
2022-10-18T07:44:33.476Z,21.86
2022-10-18T07:46:41.817Z,21.89
2022-10-18T07:47:45.932Z,21.87
2022-10-18T07:48:50.124Z,21.83
2022-10-18T07:49:54.255Z,21.84
2022-10-18T07:50:58.357Z,21.87
2022-10-18T07:52:02.488Z,21.76
2022-10-18T07:53:06.609Z,21.88
2022-10-18T07:54:10.743Z,21.85
2022-10-18T07:55:14.861Z,21.87
2022-10-18T07:56:18.984Z,21.87
2022-10-18T07:57:23.922Z,21.89
2022-10-18T07:58:28.021Z,21.88
2022-10-18T07:59:32.137Z,21.88
2022-10-18T08:00:36.268Z,21.87
2022-10-18T08:01:40.414Z,21.88
2022-10-18T08:02:44.838Z,21.93
2022-10-18T08:03:48.961Z,21.91
2022-10-18T08:04:53.090Z,21.96
2022-10-18T08:05:57.193Z,22.11
2022-10-18T08:07:01.346Z,22.16
2022-10-18T08:08:07.162Z,22.26
2022-10-18T08:09:12.309Z,22.14
2022-10-18T08:10:16.510Z,22.12
2022-10-18T08:11:20.659Z,22.28
2022-10-18T08:12:24.825Z,22.32
2022-10-18T08:13:28.942Z,22.44
2022-10-18T08:14:33.047Z,22.38
2022-10-18T08:15:37.142Z,22.21
2022-10-18T08:16:41.246Z,22.07
2022-10-18T08:17:45.343Z,21.96
2022-10-18T08:18:49.458Z,21.9
2022-10-18T08:20:04.593Z,21.82
2022-10-18T08:21:33.894Z,21.8
2022-10-18T08:22:38.020Z,21.79
2022-10-18T08:23:42.125Z,21.83
2022-10-18T08:24:46.219Z,21.84
2022-10-18T08:25:50.359Z,21.81
2022-10-18T08:26:54.461Z,21.82
2022-10-18T08:27:58.539Z,21.83
2022-10-18T08:29:23.163Z,21.87
2022-10-18T08:30:34.405Z,21.89
2022-10-18T08:31:38.524Z,21.88
2022-10-18T08:32:42.702Z,21.92
2022-10-18T08:33:46.859Z,21.93
2022-10-18T08:34:50.996Z,21.96
2022-10-18T08:35:55.145Z,21.97
2022-10-18T08:36:59.262Z,21.98
2022-10-18T08:38:03.377Z,22
2022-10-18T08:39:07.516Z,22
2022-10-18T08:40:11.618Z,22.04
2022-10-18T08:41:15.757Z,22.06
2022-10-18T08:42:19.869Z,22.07
2022-10-18T08:43:24.099Z,22.08
2022-10-18T08:44:28.405Z,22.09
2022-10-18T08:45:45.225Z,22.1
2022-10-18T08:46:49.385Z,22.09
2022-10-18T08:47:53.494Z,22.13
2022-10-18T08:48:57.616Z,22.14
2022-10-18T08:50:01.756Z,22.16
2022-10-18T08:51:05.847Z,22.18
2022-10-18T08:52:09.977Z,22.19
2022-10-18T08:53:14.096Z,22.19
2022-10-18T08:54:18.211Z,22.23
2022-10-18T08:55:22.335Z,22.23
2022-10-18T08:56:26.456Z,22.25
2022-10-18T08:57:30.900Z,22.25
2022-10-18T08:58:36.274Z,22.29
2022-10-18T08:59:40.406Z,22.3
2022-10-18T09:00:44.587Z,22.32
2022-10-18T09:02:53.051Z,22.36
2022-10-18T09:03:57.499Z,22.35
2022-10-18T09:05:01.651Z,22.4
2022-10-18T09:06:06.036Z,22.39
2022-10-18T09:07:10.269Z,22.4
2022-10-18T09:08:14.370Z,22.43
2022-10-18T09:09:18.475Z,22.43
2022-10-18T09:10:22.721Z,22.45
2022-10-18T09:11:26.834Z,22.46
2022-10-18T09:12:31.085Z,22.48
2022-10-18T09:13:36.160Z,22.48
2022-10-18T09:14:40.284Z,22.46
2022-10-18T09:15:44.421Z,22.51
2022-10-18T09:16:48.552Z,22.52
2022-10-18T09:17:52.731Z,22.53
2022-10-18T09:18:56.848Z,22.56
2022-10-18T09:21:05.143Z,22.53
2022-10-18T09:22:09.681Z,22.57
2022-10-18T09:23:13.948Z,22.56
2022-10-18T09:24:18.158Z,22.55
2022-10-18T09:25:22.274Z,22.6
2022-10-18T09:26:26.392Z,22.61
2022-10-18T09:27:30.515Z,22.58
2022-10-18T09:28:34.747Z,22.61
2022-10-18T09:29:39.126Z,22.63
2022-10-18T09:30:43.222Z,22.64
2022-10-18T09:31:47.354Z,22.6
2022-10-18T09:32:51.488Z,22.64
2022-10-18T09:33:55.624Z,22.64
2022-10-18T09:34:59.759Z,22.63
2022-10-18T09:36:03.896Z,22.68
2022-10-18T09:37:08.066Z,22.71
2022-10-18T09:38:12.244Z,22.7
2022-10-18T09:39:16.560Z,22.74
2022-10-18T09:40:20.824Z,22.7
2022-10-18T09:41:24.954Z,22.7
2022-10-18T09:42:29.419Z,22.2
2022-10-18T09:43:34.663Z,22.74
2022-10-18T09:44:38.877Z,22.75
2022-10-18T09:45:43.357Z,22.76
2022-10-18T09:46:47.453Z,22.77
2022-10-18T09:47:51.565Z,22.75
2022-10-18T09:48:55.683Z,22.76
2022-10-18T09:49:59.804Z,22.82
2022-10-18T09:51:03.912Z,22.82
2022-10-18T09:52:08.017Z,22.8
2022-10-18T09:53:12.132Z,22.82
2022-10-18T09:54:16.260Z,22.83
2022-10-18T09:55:20.354Z,22.84
2022-10-18T09:56:24.491Z,22.85
2022-10-18T09:57:28.677Z,22.85
2022-10-18T09:58:33.627Z,22.87
2022-10-18T09:59:37.790Z,22.87
2022-10-18T10:00:41.917Z,22.84
2022-10-18T10:01:46.058Z,22.86
2022-10-18T10:02:50.228Z,22.9
2022-10-18T10:03:54.631Z,22.89
2022-10-18T10:04:58.811Z,22.91
2022-10-18T10:06:03.294Z,22.92
2022-10-18T10:07:07.418Z,22.94
2022-10-18T10:08:11.537Z,22.94
2022-10-18T10:09:15.649Z,22.93
2022-10-18T10:10:19.768Z,22.93
2022-10-18T10:11:23.877Z,22.91
2022-10-18T10:12:28.004Z,22.91
2022-10-18T10:13:32.117Z,22.98
2022-10-18T10:14:36.257Z,22.98
2022-10-18T10:15:42.347Z,22.98
2022-10-18T10:16:46.650Z,22.96
2022-10-18T10:17:50.798Z,22.99
2022-10-18T10:18:55.044Z,22.97
2022-10-18T10:19:59.410Z,23
2022-10-18T10:21:03.639Z,22.98
2022-10-18T10:22:07.771Z,23.02
2022-10-18T10:23:11.940Z,22.8
2022-10-18T10:24:16.255Z,22.88
2022-10-18T10:25:20.365Z,23
2022-10-18T10:26:24.504Z,23.01
2022-10-18T10:27:28.821Z,23.01
2022-10-18T10:28:34.203Z,23.02
2022-10-18T10:29:44.345Z,22.98
2022-10-18T10:30:49.087Z,23.04
2022-10-18T10:31:53.218Z,23
2022-10-18T10:32:57.341Z,23.05
2022-10-18T10:34:01.512Z,23.09
2022-10-18T10:35:05.650Z,23.09
2022-10-18T10:36:24.873Z,22.84
2022-10-18T10:37:29.234Z,23.06
2022-10-18T10:38:34.355Z,23.09
2022-10-18T10:39:38.500Z,23.12
2022-10-18T10:40:45.134Z,23.11
2022-10-18T10:41:49.528Z,23.09
2022-10-18T10:42:56.901Z,23.12
2022-10-18T10:44:39.896Z,23.13
2022-10-18T10:45:44.053Z,23.13
2022-10-18T10:46:48.181Z,23.12
2022-10-18T10:47:52.349Z,23.11
2022-10-18T10:49:14.158Z,23.12
2022-10-18T10:50:55.922Z,23.15
2022-10-18T10:52:08.060Z,23.16
2022-10-18T10:53:30.824Z,23.17
2022-10-18T10:54:34.930Z,23.14
2022-10-18T10:55:39.075Z,23.15
2022-10-18T10:56:43.203Z,23.19
2022-10-18T10:57:47.326Z,23.16
2022-10-18T10:58:51.505Z,23.16
2022-10-18T10:59:55.741Z,23.2
2022-10-18T11:00:59.892Z,23.2
2022-10-18T11:02:04.016Z,23.23
2022-10-18T11:03:24.035Z,23.21
2022-10-18T11:04:33.564Z,23.24
2022-10-18T11:05:37.713Z,23.22
2022-10-18T11:06:41.855Z,23.24
2022-10-18T11:07:45.961Z,23.23
2022-10-18T11:08:50.141Z,23.24
2022-10-18T11:09:54.264Z,23.24
2022-10-18T11:10:58.375Z,23.19
2022-10-18T11:12:02.516Z,23.21
2022-10-18T11:13:06.646Z,23.25
2022-10-18T11:14:25.068Z,23.25
2022-10-18T11:15:30.565Z,23.24
2022-10-18T11:16:34.776Z,23.26
2022-10-18T11:17:38.928Z,23.25
2022-10-18T11:18:43.084Z,23.24
2022-10-18T11:19:47.211Z,23.24
2022-10-18T11:20:51.774Z,23.26
2022-10-18T11:21:55.882Z,23.28
2022-10-18T11:23:00.025Z,23.22
2022-10-18T11:24:04.157Z,23.25
2022-10-18T11:25:08.305Z,23.23
2022-10-18T11:26:12.458Z,23.29
2022-10-18T11:27:16.586Z,23.23
2022-10-18T11:28:20.744Z,23.28
2022-10-18T11:29:24.855Z,23.27
2022-10-18T11:30:28.980Z,23.27
2022-10-18T11:31:33.087Z,23.28
2022-10-18T11:32:37.299Z,23.26
2022-10-18T11:34:03.904Z,23.28
2022-10-18T11:35:13.513Z,23.31
2022-10-18T11:36:17.669Z,23.3
2022-10-18T11:37:39.681Z,23.26
2022-10-18T11:38:44.957Z,23.3
2022-10-18T11:39:49.058Z,23.28
2022-10-18T11:40:53.182Z,23.31
2022-10-18T11:41:57.272Z,23.29
2022-10-18T11:43:01.366Z,23.32
2022-10-18T11:44:05.433Z,23.33
2022-10-18T11:45:09.511Z,23.29
2022-10-18T11:46:13.625Z,23.31
2022-10-18T11:47:17.691Z,23.32
2022-10-18T11:48:21.792Z,23.29
2022-10-18T11:49:25.843Z,23.32
2022-10-18T11:50:29.939Z,23.33
2022-10-18T11:51:50.158Z,23.29
2022-10-18T11:53:11.866Z,23.32
2022-10-18T11:54:15.962Z,23.3
2022-10-18T11:55:20.020Z,23.3
2022-10-18T11:56:24.103Z,23.28
2022-10-18T11:57:28.186Z,23.28
2022-10-18T11:58:33.084Z,23.29
2022-10-18T11:59:37.212Z,23.3
2022-10-18T12:00:41.328Z,23.29
2022-10-18T12:01:45.410Z,23.28
2022-10-18T12:02:49.516Z,23.31
2022-10-18T12:03:53.722Z,23.29
2022-10-18T12:05:18.800Z,23.3
2022-10-18T12:06:27.953Z,23.12
2022-10-18T12:07:32.553Z,23.28
2022-10-18T12:08:36.736Z,23.23
2022-10-18T12:09:40.806Z,23.22
2022-10-18T12:11:03.795Z,23.18
2022-10-18T12:12:09.527Z,23.18
2022-10-18T12:13:13.578Z,23.07
2022-10-18T12:14:17.646Z,23.12
2022-10-18T12:15:21.729Z,23.12
2022-10-18T12:16:45.854Z,23.11
2022-10-18T12:18:38.126Z,23.11
2022-10-18T12:19:42.359Z,23.08
2022-10-18T12:20:46.432Z,23.05
2022-10-18T12:21:50.530Z,23.08
2022-10-18T12:22:54.588Z,23.04
2022-10-18T12:23:58.661Z,23.07
2022-10-18T12:25:02.759Z,23.07
2022-10-18T12:26:06.855Z,23.07
2022-10-18T12:27:10.947Z,23.09
2022-10-18T12:28:15.006Z,23.05
2022-10-18T12:29:19.098Z,23.06
2022-10-18T12:30:23.161Z,23.09
2022-10-18T12:31:27.250Z,23.12
2022-10-18T12:32:31.738Z,23.15
2022-10-18T12:33:37.058Z,23.18
2022-10-18T12:34:41.147Z,23.16
2022-10-18T12:35:45.251Z,23.18
2022-10-18T12:36:49.392Z,23.15
2022-10-18T12:37:53.718Z,23.17
2022-10-18T12:38:57.809Z,23.17
2022-10-18T12:40:11.344Z,23.15
2022-10-18T12:41:23.775Z,23.17
2022-10-18T12:42:27.888Z,23.17
2022-10-18T12:43:31.973Z,23.16
2022-10-18T12:44:36.065Z,23.16
2022-10-18T12:45:40.303Z,23.14
2022-10-18T12:46:44.411Z,23.18
2022-10-18T12:47:48.490Z,23.17
2022-10-18T12:48:52.610Z,23.18
2022-10-18T12:49:56.685Z,23.21
2022-10-18T12:51:00.816Z,23.21
2022-10-18T12:52:04.881Z,23.21
2022-10-18T12:53:08.963Z,23.2
2022-10-18T12:54:13.062Z,23.15
2022-10-18T12:55:17.805Z,23.17
2022-10-18T12:56:23.144Z,23.17
2022-10-18T12:57:29.464Z,23.17
2022-10-18T12:58:34.628Z,23.22
2022-10-18T12:59:38.740Z,23.15
2022-10-18T13:00:42.835Z,23.16
2022-10-18T13:01:46.992Z,23.13
2022-10-18T13:02:51.326Z,23.13
2022-10-18T13:03:55.435Z,23.13
2022-10-18T13:06:06.557Z,23.12
2022-10-18T13:07:10.853Z,23.1
2022-10-18T13:08:14.911Z,23.16
2022-10-18T13:09:18.990Z,23.17
2022-10-18T13:10:23.115Z,23.17
2022-10-18T13:11:27.211Z,23.17
2022-10-18T13:12:31.310Z,23.15
2022-10-18T13:13:39.995Z,23.18
2022-10-18T13:14:48.543Z,23.17
2022-10-18T13:16:28.145Z,23.19
2022-10-18T13:17:32.480Z,23.15
2022-10-18T13:18:37.573Z,23.13
2022-10-18T13:19:41.643Z,23.16
2022-10-18T13:20:45.724Z,23.19
2022-10-18T13:21:49.811Z,23.09
2022-10-18T13:22:53.934Z,23.01
2022-10-18T13:23:58.016Z,22.98
2022-10-18T13:25:02.162Z,22.96
2022-10-18T13:26:06.238Z,22.94
2022-10-18T13:27:24.248Z,22.93
2022-10-18T13:28:39.460Z,22.91
2022-10-18T13:29:43.774Z,22.9
2022-10-18T13:30:47.838Z,22.9
2022-10-18T13:31:51.938Z,22.91
2022-10-18T13:32:57.288Z,22.94
2022-10-18T13:34:01.598Z,22.96
2022-10-18T13:35:05.684Z,22.97
2022-10-18T13:36:09.777Z,22.98
2022-10-18T13:37:13.882Z,22.99
2022-10-18T13:38:17.960Z,22.99
2022-10-18T13:39:22.039Z,23
2022-10-18T13:40:26.101Z,23.01
2022-10-18T13:41:31.432Z,23.02
2022-10-18T13:42:38.983Z,23
2022-10-18T13:43:43.065Z,23.02
2022-10-18T13:44:51.130Z,23.05
2022-10-18T13:45:55.214Z,23.06
2022-10-18T13:46:59.319Z,23.08
2022-10-18T13:48:03.471Z,23.07
2022-10-18T13:49:07.548Z,23.1
2022-10-18T13:50:11.691Z,23.12
2022-10-18T13:51:16.013Z,23.12
2022-10-18T13:52:20.118Z,23.14
2022-10-18T13:53:24.229Z,23.14
2022-10-18T13:54:28.311Z,22.89
2022-10-18T13:55:32.405Z,23.13
2022-10-18T13:56:36.492Z,23.14
2022-10-18T13:57:40.599Z,23.18
2022-10-18T13:58:49.095Z,23.19
2022-10-18T14:00:17.415Z,23.19
2022-10-18T14:01:21.576Z,23.2
2022-10-18T14:02:36.690Z,23.19
2022-10-18T14:04:02.476Z,23.19
2022-10-18T14:05:23.355Z,23.19
2022-10-18T14:06:29.108Z,23.15